sensor_id;sensor_type;location;lat;lon;timestamp;pressure;altitude;pressure_sealevel;temperature;humidity
60920;BME280;59039;52.108;19.942;2022-07-04T00:02:35;100767.88;;;19.78;66.99
60920;BME280;59039;52.108;19.942;2022-07-04T00:05:41;100764.90;;;19.73;67.11
60920;BME280;59039;52.108;19.942;2022-07-04T00:08:47;100761.14;;;19.69;67.29
60920;BME280;59039;52.108;19.942;2022-07-04T00:11:53;100758.04;;;19.66;67.46
60920;BME280;59039;52.108;19.942;2022-07-04T00:14:57;100754.73;;;19.64;67.47
60920;BME280;59039;52.108;19.942;2022-07-04T00:17:25;100749.27;;;19.60;67.57
60920;BME280;59039;52.108;19.942;2022-07-04T00:19:50;100749.59;;;19.59;67.91
60920;BME280;59039;52.108;19.942;2022-07-04T00:22:18;100752.34;;;19.59;67.80
60920;BME280;59039;52.108;19.942;2022-07-04T00:25:17;100750.41;;;19.58;68.07
60920;BME280;59039;52.108;19.942;2022-07-04T00:33:47;100744.02;;;19.57;68.39
60920;BME280;59039;52.108;19.942;2022-07-04T00:36:54;100740.15;;;19.56;68.41
60920;BME280;59039;52.108;19.942;2022-07-04T00:40:00;100741.42;;;19.54;68.48
60920;BME280;59039;52.108;19.942;2022-07-04T00:42:35;100737.77;;;19.54;68.62
60920;BME280;59039;52.108;19.942;2022-07-04T00:45:01;100733.81;;;19.54;68.53
60920;BME280;59039;52.108;19.942;2022-07-04T00:47:47;100730.86;;;19.54;68.72
60920;BME280;59039;52.108;19.942;2022-07-04T00:50:32;100729.91;;;19.54;68.78
60920;BME280;59039;52.108;19.942;2022-07-04T00:53:18;100727.02;;;19.52;68.97
60920;BME280;59039;52.108;19.942;2022-07-04T00:56:26;100725.20;;;19.52;68.68
60920;BME280;59039;52.108;19.942;2022-07-04T00:59:32;100722.06;;;19.52;68.78
60920;BME280;59039;52.108;19.942;2022-07-04T01:02:05;100725.71;;;19.54;69.00
60920;BME280;59039;52.108;19.942;2022-07-04T01:10:37;100722.64;;;19.57;68.94
60920;BME280;59039;52.108;19.942;2022-07-04T01:13:26;100724.11;;;19.57;68.98
60920;BME280;59039;52.108;19.942;2022-07-04T01:15:58;100723.70;;;19.58;68.98
60920;BME280;59039;52.108;19.942;2022-07-04T01:19:06;100724.63;;;19.58;68.95
60920;BME280;59039;52.108;19.942;2022-07-04T01:21:52;100727.08;;;19.57;69.23
60920;BME280;59039;52.108;19.942;2022-07-04T01:24:46;100727.73;;;19.57;69.23
60920;BME280;59039;52.108;19.942;2022-07-04T01:30:41;100730.55;;;19.55;69.35
60920;BME280;59039;52.108;19.942;2022-07-04T01:36:32;100730.02;;;19.55;69.10
60920;BME280;59039;52.108;19.942;2022-07-04T01:39:37;100735.27;;;19.53;69.24
60920;BME280;59039;52.108;19.942;2022-07-04T01:42:08;100730.04;;;19.50;68.73
60920;BME280;59039;52.108;19.942;2022-07-04T01:44:39;100730.91;;;19.48;68.71
60920;BME280;59039;52.108;19.942;2022-07-04T01:47:35;100735.98;;;19.43;68.96
60920;BME280;59039;52.108;19.942;2022-07-04T01:50:43;100736.63;;;19.34;69.05
60920;BME280;59039;52.108;19.942;2022-07-04T01:56:10;100732.10;;;19.13;69.37
60920;BME280;59039;52.108;19.942;2022-07-04T01:58:55;100735.40;;;19.02;69.59
60920;BME280;59039;52.108;19.942;2022-07-04T02:01:26;100736.20;;;18.91;69.75
60920;BME280;59039;52.108;19.942;2022-07-04T02:04:33;100737.64;;;18.83;70.17
60920;BME280;59039;52.108;19.942;2022-07-04T02:07:30;100737.11;;;18.77;70.43
60920;BME280;59039;52.108;19.942;2022-07-04T02:10:35;100741.48;;;18.73;70.01
60920;BME280;59039;52.108;19.942;2022-07-04T02:13:11;100743.24;;;18.65;70.58
60920;BME280;59039;52.108;19.942;2022-07-04T02:19:17;100737.73;;;18.51;70.42
60920;BME280;59039;52.108;19.942;2022-07-04T02:22:04;100737.85;;;18.44;71.04
60920;BME280;59039;52.108;19.942;2022-07-04T02:25:11;100739.61;;;18.37;70.76
60920;BME280;59039;52.108;19.942;2022-07-04T02:28:17;100738.77;;;18.28;71.56
60920;BME280;59039;52.108;19.942;2022-07-04T02:34:05;100739.77;;;18.17;71.83
60920;BME280;59039;52.108;19.942;2022-07-04T02:36:43;100741.36;;;18.10;71.87
60920;BME280;59039;52.108;19.942;2022-07-04T02:39:39;100741.23;;;18.06;72.28
60920;BME280;59039;52.108;19.942;2022-07-04T02:42:46;100742.89;;;18.03;72.46
60920;BME280;59039;52.108;19.942;2022-07-04T02:45:52;100738.91;;;17.99;72.28
60920;BME280;59039;52.108;19.942;2022-07-04T02:48:58;100739.34;;;17.94;72.37
60920;BME280;59039;52.108;19.942;2022-07-04T02:51:54;100743.56;;;17.90;73.05
60920;BME280;59039;52.108;19.942;2022-07-04T02:54:25;100740.98;;;17.90;73.23
60920;BME280;59039;52.108;19.942;2022-07-04T03:00:17;100741.39;;;17.90;73.04
60920;BME280;59039;52.108;19.942;2022-07-04T03:03:23;100741.73;;;17.89;72.88
60920;BME280;59039;52.108;19.942;2022-07-04T03:06:28;100737.38;;;17.85;73.13
60920;BME280;59039;52.108;19.942;2022-07-04T03:08:53;100742.56;;;17.84;73.29
60920;BME280;59039;52.108;19.942;2022-07-04T03:17:07;100755.23;;;17.82;73.56
60920;BME280;59039;52.108;19.942;2022-07-04T03:20:01;100749.39;;;17.82;73.62
60920;BME280;59039;52.108;19.942;2022-07-04T03:22:39;100744.89;;;17.81;73.54
60920;BME280;59039;52.108;19.942;2022-07-04T03:25:05;100745.79;;;17.80;73.37
60920;BME280;59039;52.108;19.942;2022-07-04T03:28:11;100744.79;;;17.77;73.42
60920;BME280;59039;52.108;19.942;2022-07-04T03:31:18;100745.21;;;17.75;73.81
60920;BME280;59039;52.108;19.942;2022-07-04T03:34:24;100743.44;;;17.74;74.09
60920;BME280;59039;52.108;19.942;2022-07-04T03:37:09;100743.71;;;17.75;74.08
60920;BME280;59039;52.108;19.942;2022-07-04T03:40:16;100741.06;;;17.76;73.96
60920;BME280;59039;52.108;19.942;2022-07-04T03:46:08;100735.16;;;17.79;74.30
60920;BME280;59039;52.108;19.942;2022-07-04T03:49:16;100739.94;;;17.83;74.24
60920;BME280;59039;52.108;19.942;2022-07-04T03:52:12;100740.96;;;17.84;74.13
60920;BME280;59039;52.108;19.942;2022-07-04T03:58:14;100741.39;;;17.90;74.70
60920;BME280;59039;52.108;19.942;2022-07-04T04:00:59;100741.25;;;17.94;74.34
60920;BME280;59039;52.108;19.942;2022-07-04T04:06:41;100748.27;;;18.01;74.52
60920;BME280;59039;52.108;19.942;2022-07-04T04:09:05;100752.61;;;18.05;74.72
60920;BME280;59039;52.108;19.942;2022-07-04T04:12:12;100753.75;;;18.10;74.83
60920;BME280;59039;52.108;19.942;2022-07-04T04:15:00;100754.94;;;18.15;74.60
60920;BME280;59039;52.108;19.942;2022-07-04T04:17:59;100756.77;;;18.19;74.44
60920;BME280;59039;52.108;19.942;2022-07-04T04:23:53;100754.81;;;18.23;74.28
60920;BME280;59039;52.108;19.942;2022-07-04T04:27:00;100750.86;;;18.25;74.62
60920;BME280;59039;52.108;19.942;2022-07-04T04:29:59;100752.41;;;18.28;74.79
60920;BME280;59039;52.108;19.942;2022-07-04T04:32:32;100755.79;;;18.32;74.83
60920;BME280;59039;52.108;19.942;2022-07-04T04:34:58;100754.26;;;18.35;74.86
60920;BME280;59039;52.108;19.942;2022-07-04T04:40:50;100753.80;;;18.42;74.74
60920;BME280;59039;52.108;19.942;2022-07-04T04:43:25;100754.98;;;18.44;75.14
60920;BME280;59039;52.108;19.942;2022-07-04T04:46:32;100750.79;;;18.48;75.06
60920;BME280;59039;52.108;19.942;2022-07-04T04:49:22;100739.08;;;18.51;74.68
60920;BME280;59039;52.108;19.942;2022-07-04T04:52:18;100742.39;;;18.53;74.72
60920;BME280;59039;52.108;19.942;2022-07-04T04:55:25;100745.04;;;18.57;74.68
60920;BME280;59039;52.108;19.942;2022-07-04T05:00:35;100737.08;;;18.62;74.66
60920;BME280;59039;52.108;19.942;2022-07-04T05:03:24;100738.70;;;18.65;74.90
60920;BME280;59039;52.108;19.942;2022-07-04T05:08:57;100736.67;;;18.78;75.12
60920;BME280;59039;52.108;19.942;2022-07-04T05:12:04;100741.58;;;18.84;75.21
60920;BME280;59039;52.108;19.942;2022-07-04T05:17:48;100746.16;;;19.04;75.33
60920;BME280;59039;52.108;19.942;2022-07-04T05:20:36;100746.46;;;19.12;75.65
60920;BME280;59039;52.108;19.942;2022-07-04T05:23:03;100743.52;;;19.22;75.44
60920;BME280;59039;52.108;19.942;2022-07-04T05:25:34;100739.06;;;19.31;75.13
60920;BME280;59039;52.108;19.942;2022-07-04T05:30:59;100744.17;;;19.44;74.75
60920;BME280;59039;52.108;19.942;2022-07-04T05:34:05;100740.34;;;19.50;75.02
60920;BME280;59039;52.108;19.942;2022-07-04T05:42:07;100735.33;;;19.92;74.76
60920;BME280;59039;52.108;19.942;2022-07-04T05:44:41;100736.50;;;20.09;74.53
60920;BME280;59039;52.108;19.942;2022-07-04T05:47:47;100731.14;;;20.26;74.26
60920;BME280;59039;52.108;19.942;2022-07-04T05:50:32;100724.70;;;20.49;74.02
60920;BME280;59039;52.108;19.942;2022-07-04T05:55:57;100724.25;;;20.91;73.77
60920;BME280;59039;52.108;19.942;2022-07-04T05:58:31;100727.27;;;21.13;73.46
60920;BME280;59039;52.108;19.942;2022-07-04T06:01:29;100720.52;;;21.33;72.88
60920;BME280;59039;52.108;19.942;2022-07-04T06:04:26;100718.73;;;21.51;72.55
60920;BME280;59039;52.108;19.942;2022-07-04T06:07:03;100722.01;;;21.69;72.25
60920;BME280;59039;52.108;19.942;2022-07-04T06:09:49;100722.08;;;21.86;71.84
60920;BME280;59039;52.108;19.942;2022-07-04T06:12:17;100713.79;;;22.06;71.37
60920;BME280;59039;52.108;19.942;2022-07-04T06:15:18;100717.64;;;22.22;70.60
60920;BME280;59039;52.108;19.942;2022-07-04T06:17:43;100718.91;;;22.42;70.12
60920;BME280;59039;52.108;19.942;2022-07-04T06:23:15;100716.39;;;22.76;69.78
60920;BME280;59039;52.108;19.942;2022-07-04T06:26:22;100721.56;;;22.95;69.59
60920;BME280;59039;52.108;19.942;2022-07-04T06:29:07;100727.48;;;23.18;68.46
60920;BME280;59039;52.108;19.942;2022-07-04T06:32:13;100723.91;;;23.39;68.09
60920;BME280;59039;52.108;19.942;2022-07-04T06:37:16;100710.65;;;23.82;66.96
60920;BME280;59039;52.108;19.942;2022-07-04T06:39:50;100706.17;;;23.99;66.42
60920;BME280;59039;52.108;19.942;2022-07-04T06:45:46;100693.27;;;24.37;65.23
60920;BME280;59039;52.108;19.942;2022-07-04T06:51:38;100681.69;;;24.72;63.91
60920;BME280;59039;52.108;19.942;2022-07-04T06:57:01;100692.46;;;25.04;62.58
60920;BME280;59039;52.108;19.942;2022-07-04T06:59:29;100697.69;;;25.18;62.20
60920;BME280;59039;52.108;19.942;2022-07-04T07:01:54;100706.50;;;25.31;61.37
60920;BME280;59039;52.108;19.942;2022-07-04T07:04:27;100705.25;;;25.43;60.97
60920;BME280;59039;52.108;19.942;2022-07-04T07:07:13;100707.05;;;25.57;60.74
60920;BME280;59039;52.108;19.942;2022-07-04T07:09:38;100702.06;;;25.70;60.53
60920;BME280;59039;52.108;19.942;2022-07-04T07:12:14;100706.00;;;25.81;60.49
60920;BME280;59039;52.108;19.942;2022-07-04T07:15:21;100706.54;;;25.93;60.09
60920;BME280;59039;52.108;19.942;2022-07-04T07:17:56;100708.11;;;26.03;59.22
60920;BME280;59039;52.108;19.942;2022-07-04T07:23:16;100704.57;;;26.20;58.46
60920;BME280;59039;52.108;19.942;2022-07-04T07:25:44;100706.70;;;26.28;58.45
60920;BME280;59039;52.108;19.942;2022-07-04T07:31:27;100711.63;;;26.44;57.97
60920;BME280;59039;52.108;19.942;2022-07-04T07:33:52;100710.39;;;26.51;57.31
60920;BME280;59039;52.108;19.942;2022-07-04T07:36:39;100706.88;;;26.58;56.99
60920;BME280;59039;52.108;19.942;2022-07-04T07:39:11;100706.87;;;26.66;56.49
60920;BME280;59039;52.108;19.942;2022-07-04T07:42:17;100703.95;;;26.72;55.88
60920;BME280;59039;52.108;19.942;2022-07-04T07:45:03;100695.05;;;26.80;55.23
60920;BME280;59039;52.108;19.942;2022-07-04T07:47:31;100695.54;;;26.87;55.01
60920;BME280;59039;52.108;19.942;2022-07-04T07:49:56;100691.61;;;26.93;54.55
60920;BME280;59039;52.108;19.942;2022-07-04T07:52:22;100686.27;;;26.98;53.83
60920;BME280;59039;52.108;19.942;2022-07-04T07:54:47;100682.48;;;27.03;53.38
60920;BME280;59039;52.108;19.942;2022-07-04T07:57:13;100682.84;;;27.09;53.66
60920;BME280;59039;52.108;19.942;2022-07-04T08:00:01;100686.11;;;27.15;52.94
60920;BME280;59039;52.108;19.942;2022-07-04T08:02:29;100688.92;;;27.20;51.96
60920;BME280;59039;52.108;19.942;2022-07-04T08:04:54;100687.14;;;27.24;52.31
60920;BME280;59039;52.108;19.942;2022-07-04T08:07:44;100687.83;;;27.29;51.50
60920;BME280;59039;52.108;19.942;2022-07-04T08:10:10;100683.06;;;27.36;51.82
60920;BME280;59039;52.108;19.942;2022-07-04T08:12:38;100685.32;;;27.43;52.10
60920;BME280;59039;52.108;19.942;2022-07-04T08:15:15;100680.92;;;27.49;50.96
60920;BME280;59039;52.108;19.942;2022-07-04T08:17:41;100685.52;;;27.55;50.69
60920;BME280;59039;52.108;19.942;2022-07-04T08:20:37;100689.30;;;27.59;50.49
60920;BME280;59039;52.108;19.942;2022-07-04T08:23:07;100695.05;;;27.62;50.30
60920;BME280;59039;52.108;19.942;2022-07-04T08:25:54;100686.81;;;27.65;50.41
60920;BME280;59039;52.108;19.942;2022-07-04T08:28:49;100691.23;;;27.67;50.02
60920;BME280;59039;52.108;19.942;2022-07-04T08:31:15;100690.41;;;27.67;49.67
60920;BME280;59039;52.108;19.942;2022-07-04T08:34:22;100687.01;;;27.68;49.92
60920;BME280;59039;52.108;19.942;2022-07-04T08:36:57;100679.23;;;27.67;49.48
60920;BME280;59039;52.108;19.942;2022-07-04T08:39:22;100680.17;;;27.66;48.70
60920;BME280;59039;52.108;19.942;2022-07-04T08:42:19;100682.23;;;27.65;49.29
60920;BME280;59039;52.108;19.942;2022-07-04T08:44:47;100679.87;;;27.64;49.35
60920;BME280;59039;52.108;19.942;2022-07-04T08:47:29;100679.34;;;27.62;48.95
60920;BME280;59039;52.108;19.942;2022-07-04T08:53:03;100683.99;;;27.58;48.69
60920;BME280;59039;52.108;19.942;2022-07-04T08:55:29;100688.07;;;27.54;47.88
60920;BME280;59039;52.108;19.942;2022-07-04T08:58:21;100686.61;;;27.53;48.15
60920;BME280;59039;52.108;19.942;2022-07-04T09:00:53;100692.65;;;27.50;47.49
60920;BME280;59039;52.108;19.942;2022-07-04T09:03:41;100686.83;;;27.48;47.67
60920;BME280;59039;52.108;19.942;2022-07-04T09:06:25;100687.48;;;27.45;47.19
60920;BME280;59039;52.108;19.942;2022-07-04T09:09:32;100680.06;;;27.43;47.37
60920;BME280;59039;52.108;19.942;2022-07-04T09:12:07;100682.16;;;27.40;47.59
60920;BME280;59039;52.108;19.942;2022-07-04T09:14:36;100689.34;;;27.39;48.08
60920;BME280;59039;52.108;19.942;2022-07-04T09:17:31;100688.86;;;27.36;47.51
60920;BME280;59039;52.108;19.942;2022-07-04T09:20:31;100688.05;;;27.34;48.02
60920;BME280;59039;52.108;19.942;2022-07-04T09:22:57;100687.27;;;27.33;48.34
60920;BME280;59039;52.108;19.942;2022-07-04T09:25:42;100685.40;;;27.31;48.24
60920;BME280;59039;52.108;19.942;2022-07-04T09:28:07;100686.73;;;27.30;47.67
60920;BME280;59039;52.108;19.942;2022-07-04T09:30:53;100693.69;;;27.29;48.21
60920;BME280;59039;52.108;19.942;2022-07-04T09:33:19;100690.94;;;27.28;48.23
60920;BME280;59039;52.108;19.942;2022-07-04T09:35:49;100690.99;;;27.28;48.43
60920;BME280;59039;52.108;19.942;2022-07-04T09:38:22;100690.31;;;27.27;48.71
60920;BME280;59039;52.108;19.942;2022-07-04T09:40:52;100691.98;;;27.26;48.69
60920;BME280;59039;52.108;19.942;2022-07-04T09:43:17;100690.86;;;27.26;48.64
60920;BME280;59039;52.108;19.942;2022-07-04T09:46:06;100690.07;;;27.25;49.05
60920;BME280;59039;52.108;19.942;2022-07-04T09:48:50;100686.48;;;27.23;49.19
60920;BME280;59039;52.108;19.942;2022-07-04T09:51:55;100687.24;;;27.23;48.95
60920;BME280;59039;52.108;19.942;2022-07-04T09:54:46;100685.80;;;27.20;49.15
60920;BME280;59039;52.108;19.942;2022-07-04T09:57:20;100683.40;;;27.17;48.57
60920;BME280;59039;52.108;19.942;2022-07-04T10:00:05;100689.64;;;27.13;48.54
60920;BME280;59039;52.108;19.942;2022-07-04T10:02:43;100687.83;;;27.10;49.09
60920;BME280;59039;52.108;19.942;2022-07-04T10:05:09;100682.44;;;27.08;49.25
60920;BME280;59039;52.108;19.942;2022-07-04T10:07:39;100685.70;;;27.06;49.14
60920;BME280;59039;52.108;19.942;2022-07-04T10:10:39;100682.89;;;27.04;48.25
60920;BME280;59039;52.108;19.942;2022-07-04T10:13:25;100675.09;;;27.00;49.09
60920;BME280;59039;52.108;19.942;2022-07-04T10:16:17;100682.69;;;26.97;48.59
60920;BME280;59039;52.108;19.942;2022-07-04T10:18:42;100673.34;;;26.94;48.97
60920;BME280;59039;52.108;19.942;2022-07-04T10:21:30;100667.87;;;26.91;48.91
60920;BME280;59039;52.108;19.942;2022-07-04T10:24:06;100660.58;;;26.88;49.24
60920;BME280;59039;52.108;19.942;2022-07-04T10:26:58;100663.34;;;26.87;50.00
60920;BME280;59039;52.108;19.942;2022-07-04T10:29:22;100667.85;;;26.86;50.10
60920;BME280;59039;52.108;19.942;2022-07-04T10:31:48;100669.96;;;26.85;49.61
60920;BME280;59039;52.108;19.942;2022-07-04T10:34:59;100662.97;;;26.83;49.23
60920;BME280;59039;52.108;19.942;2022-07-04T10:37:12;100656.67;;;26.81;49.50
60920;BME280;59039;52.108;19.942;2022-07-04T10:39:38;100662.40;;;26.79;49.13
60920;BME280;59039;52.108;19.942;2022-07-04T10:45:47;100664.04;;;26.77;49.10
60920;BME280;59039;52.108;19.942;2022-07-04T10:47:54;100655.75;;;26.75;49.92
60920;BME280;59039;52.108;19.942;2022-07-04T10:53:32;100656.42;;;26.71;50.16
60920;BME280;59039;52.108;19.942;2022-07-04T10:58:45;100657.58;;;26.70;48.49
60920;BME280;59039;52.108;19.942;2022-07-04T11:01:29;100654.85;;;26.70;48.83
60920;BME280;59039;52.108;19.942;2022-07-04T11:04:00;100652.34;;;26.69;49.00
60920;BME280;59039;52.108;19.942;2022-07-04T11:09:33;100651.45;;;26.69;49.48
60920;BME280;59039;52.108;19.942;2022-07-04T11:12:00;100644.23;;;26.68;48.98
60920;BME280;59039;52.108;19.942;2022-07-04T11:17:26;100644.66;;;26.68;48.40
60920;BME280;59039;52.108;19.942;2022-07-04T11:19:58;100645.45;;;26.68;48.97
60920;BME280;59039;52.108;19.942;2022-07-04T11:22:24;100639.54;;;26.67;48.93
60920;BME280;59039;52.108;19.942;2022-07-04T11:24:49;100639.48;;;26.68;48.81
60920;BME280;59039;52.108;19.942;2022-07-04T11:27:15;100641.71;;;26.68;48.37
60920;BME280;59039;52.108;19.942;2022-07-04T11:32:35;100636.31;;;26.68;49.13
60920;BME280;59039;52.108;19.942;2022-07-04T11:37:43;100637.55;;;26.69;49.61
60920;BME280;59039;52.108;19.942;2022-07-04T11:40:21;100638.05;;;26.69;48.99
60920;BME280;59039;52.108;19.942;2022-07-04T11:43:26;100637.77;;;26.68;48.52
60920;BME280;59039;52.108;19.942;2022-07-04T11:46:31;100637.58;;;26.67;48.85
60920;BME280;59039;52.108;19.942;2022-07-04T11:49:18;100635.34;;;26.66;48.88
60920;BME280;59039;52.108;19.942;2022-07-04T11:51:46;100632.87;;;26.65;49.65
60920;BME280;59039;52.108;19.942;2022-07-04T11:54:22;100632.80;;;26.64;50.13
60920;BME280;59039;52.108;19.942;2022-07-04T11:57:10;100625.98;;;26.64;50.17
60920;BME280;59039;52.108;19.942;2022-07-04T11:59:37;100627.44;;;26.63;50.00
60920;BME280;59039;52.108;19.942;2022-07-04T12:02:32;100623.13;;;26.62;50.05
60920;BME280;59039;52.108;19.942;2022-07-04T12:05:00;100623.84;;;26.61;49.40
60920;BME280;59039;52.108;19.942;2022-07-04T12:07:46;100628.29;;;26.60;49.08
60920;BME280;59039;52.108;19.942;2022-07-04T12:10:14;100629.35;;;26.60;48.51
60920;BME280;59039;52.108;19.942;2022-07-04T12:15:58;100625.27;;;26.60;47.38
60920;BME280;59039;52.108;19.942;2022-07-04T12:18:33;100626.89;;;26.59;47.21
60920;BME280;59039;52.108;19.942;2022-07-04T12:24:26;100611.81;;;26.59;45.86
60920;BME280;59039;52.108;19.942;2022-07-04T12:26:51;100615.55;;;26.59;45.23
60920;BME280;59039;52.108;19.942;2022-07-04T12:29:23;100605.56;;;26.58;45.65
60920;BME280;59039;52.108;19.942;2022-07-04T12:31:52;100602.77;;;26.57;44.72
60920;BME280;59039;52.108;19.942;2022-07-04T12:34:21;100605.39;;;26.57;44.97
60920;BME280;59039;52.108;19.942;2022-07-04T12:37:13;100599.29;;;26.56;44.71
60920;BME280;59039;52.108;19.942;2022-07-04T12:39:40;100592.55;;;26.55;43.36
60920;BME280;59039;52.108;19.942;2022-07-04T12:44:53;100587.98;;;26.54;43.49
60920;BME280;59039;52.108;19.942;2022-07-04T12:47:21;100585.66;;;26.55;43.29
60920;BME280;59039;52.108;19.942;2022-07-04T12:49:55;100593.93;;;26.56;43.76
60920;BME280;59039;52.108;19.942;2022-07-04T12:52:26;100593.10;;;26.56;44.34
60920;BME280;59039;52.108;19.942;2022-07-04T12:55:30;100589.98;;;26.57;43.73
60920;BME280;59039;52.108;19.942;2022-07-04T12:57:56;100593.46;;;26.57;43.83
60920;BME280;59039;52.108;19.942;2022-07-04T13:01:02;100598.94;;;26.58;44.33
60920;BME280;59039;52.108;19.942;2022-07-04T13:03:37;100592.69;;;26.59;44.38
60920;BME280;59039;52.108;19.942;2022-07-04T13:06:28;100587.92;;;26.59;44.30
60920;BME280;59039;52.108;19.942;2022-07-04T13:08:56;100596.73;;;26.60;43.46
60920;BME280;59039;52.108;19.942;2022-07-04T13:11:23;100602.24;;;26.60;42.72
60920;BME280;59039;52.108;19.942;2022-07-04T13:14:14;100604.01;;;26.62;42.75
60920;BME280;59039;52.108;19.942;2022-07-04T13:19:15;100600.46;;;26.64;43.46
60920;BME280;59039;52.108;19.942;2022-07-04T13:21:43;100600.36;;;26.65;43.56
60920;BME280;59039;52.108;19.942;2022-07-04T13:24:08;100602.61;;;26.66;43.57
60920;BME280;59039;52.108;19.942;2022-07-04T13:27:06;100600.84;;;26.68;43.59
60920;BME280;59039;52.108;19.942;2022-07-04T13:29:54;100600.88;;;26.69;43.61
60920;BME280;59039;52.108;19.942;2022-07-04T13:32:19;100599.88;;;26.70;43.58
60920;BME280;59039;52.108;19.942;2022-07-04T13:35:10;100602.02;;;26.72;43.85
60920;BME280;59039;52.108;19.942;2022-07-04T13:37:58;100606.29;;;26.73;44.15
60920;BME280;59039;52.108;19.942;2022-07-04T13:40:23;100607.80;;;26.75;44.19
60920;BME280;59039;52.108;19.942;2022-07-04T13:42:51;100607.83;;;26.76;44.22
60920;BME280;59039;52.108;19.942;2022-07-04T13:48:12;100614.35;;;26.77;44.05
60920;BME280;59039;52.108;19.942;2022-07-04T13:50:58;100621.21;;;26.77;44.30
60920;BME280;59039;52.108;19.942;2022-07-04T13:53:23;100621.05;;;26.77;44.86
60920;BME280;59039;52.108;19.942;2022-07-04T13:55:58;100614.42;;;26.77;44.21
60920;BME280;59039;52.108;19.942;2022-07-04T13:58:29;100619.26;;;26.77;44.33
60920;BME280;59039;52.108;19.942;2022-07-04T14:01:16;100614.28;;;26.75;44.46
60920;BME280;59039;52.108;19.942;2022-07-04T14:03:44;100606.82;;;26.75;44.70
60920;BME280;59039;52.108;19.942;2022-07-04T14:06:31;100603.48;;;26.76;45.23
60920;BME280;59039;52.108;19.942;2022-07-04T14:08:57;100601.77;;;26.78;45.80
60920;BME280;59039;52.108;19.942;2022-07-04T14:11:25;100593.64;;;26.79;45.76
60920;BME280;59039;52.108;19.942;2022-07-04T14:13:51;100592.83;;;26.80;45.89
60920;BME280;59039;52.108;19.942;2022-07-04T14:16:16;100587.65;;;26.82;46.10
60920;BME280;59039;52.108;19.942;2022-07-04T14:18:44;100585.67;;;26.84;46.29
60920;BME280;59039;52.108;19.942;2022-07-04T14:21:17;100577.72;;;26.85;46.34
60920;BME280;59039;52.108;19.942;2022-07-04T14:23:43;100573.92;;;26.86;46.77
60920;BME280;59039;52.108;19.942;2022-07-04T14:29:30;100570.23;;;26.88;47.11
60920;BME280;59039;52.108;19.942;2022-07-04T14:32:04;100566.39;;;26.89;47.10
60920;BME280;59039;52.108;19.942;2022-07-04T14:34:48;100560.09;;;26.89;46.94
60920;BME280;59039;52.108;19.942;2022-07-04T14:37:13;100558.86;;;26.90;46.44
60920;BME280;59039;52.108;19.942;2022-07-04T14:39:54;100564.27;;;26.89;47.20
60920;BME280;59039;52.108;19.942;2022-07-04T14:42:19;100561.15;;;26.89;46.58
60920;BME280;59039;52.108;19.942;2022-07-04T14:44:47;100558.58;;;26.89;46.48
60920;BME280;59039;52.108;19.942;2022-07-04T14:47:14;100563.75;;;26.88;46.32
60920;BME280;59039;52.108;19.942;2022-07-04T14:49:40;100574.35;;;26.88;46.09
60920;BME280;59039;52.108;19.942;2022-07-04T14:52:06;100574.90;;;26.87;46.32
60920;BME280;59039;52.108;19.942;2022-07-04T14:54:40;100580.08;;;26.87;45.75
60920;BME280;59039;52.108;19.942;2022-07-04T14:57:08;100580.91;;;26.87;45.47
60920;BME280;59039;52.108;19.942;2022-07-04T14:59:34;100580.73;;;26.86;45.85
60920;BME280;59039;52.108;19.942;2022-07-04T15:02:22;100584.25;;;26.87;45.68
60920;BME280;59039;52.108;19.942;2022-07-04T15:07:42;100588.05;;;26.87;46.51
60920;BME280;59039;52.108;19.942;2022-07-04T15:10:08;100588.80;;;26.88;46.85
60920;BME280;59039;52.108;19.942;2022-07-04T15:12:55;100591.76;;;26.88;47.01
60920;BME280;59039;52.108;19.942;2022-07-04T15:15:32;100598.63;;;26.89;47.54
60920;BME280;59039;52.108;19.942;2022-07-04T15:18:18;100606.20;;;26.89;47.44
60920;BME280;59039;52.108;19.942;2022-07-04T15:20:46;100602.52;;;26.87;47.30
60920;BME280;59039;52.108;19.942;2022-07-04T15:23:32;100597.26;;;26.86;47.48
60920;BME280;59039;52.108;19.942;2022-07-04T15:25:58;100593.02;;;26.86;47.92
60920;BME280;59039;52.108;19.942;2022-07-04T15:28:23;100592.69;;;26.86;47.35
60920;BME280;59039;52.108;19.942;2022-07-04T15:34:25;100585.28;;;26.84;47.58
60920;BME280;59039;52.108;19.942;2022-07-04T15:36:55;100593.73;;;26.82;46.73
60920;BME280;59039;52.108;19.942;2022-07-04T15:39:23;100597.19;;;26.81;46.62
60920;BME280;59039;52.108;19.942;2022-07-04T15:41:49;100591.21;;;26.81;46.46
60920;BME280;59039;52.108;19.942;2022-07-04T15:44:14;100590.15;;;26.80;46.58
60920;BME280;59039;52.108;19.942;2022-07-04T15:46:42;100592.55;;;26.80;46.82
60920;BME280;59039;52.108;19.942;2022-07-04T15:52:07;100589.23;;;26.79;46.87
60920;BME280;59039;52.108;19.942;2022-07-04T15:55:07;100586.27;;;26.78;46.75
60920;BME280;59039;52.108;19.942;2022-07-04T15:57:31;100579.39;;;26.77;46.90
60920;BME280;59039;52.108;19.942;2022-07-04T16:03:49;100590.55;;;26.74;46.88
60920;BME280;59039;52.108;19.942;2022-07-04T16:06:07;100597.98;;;26.71;47.12
60920;BME280;59039;52.108;19.942;2022-07-04T16:09:01;100600.98;;;26.70;47.47
60920;BME280;59039;52.108;19.942;2022-07-04T16:11:25;100597.23;;;26.68;47.79
60920;BME280;59039;52.108;19.942;2022-07-04T16:14:14;100593.98;;;26.68;48.03
60920;BME280;59039;52.108;19.942;2022-07-04T16:16:40;100588.05;;;26.66;48.45